sensor_id;sensor_type;location;lat;lon;timestamp;P1;durP1;ratioP1;P2;durP2;ratioP2
17253;SDS011;32542;52.832;13.816;2023-01-04T00:01:15;3.70;;;2.83;;
17253;SDS011;32542;52.832;13.816;2023-01-04T00:04:22;3.63;;;2.88;;
17253;SDS011;32542;52.832;13.816;2023-01-04T00:07:25;4.00;;;2.97;;
17253;SDS011;32542;52.832;13.816;2023-01-04T00:10:30;4.13;;;2.85;;
17253;SDS011;32542;52.832;13.816;2023-01-04T00:13:33;5.03;;;2.90;;
17253;SDS011;32542;52.832;13.816;2023-01-04T00:16:36;4.13;;;2.90;;
17253;SDS011;32542;52.832;13.816;2023-01-04T00:19:40;3.88;;;2.97;;
17253;SDS011;32542;52.832;13.816;2023-01-04T00:22:43;4.05;;;2.92;;
17253;SDS011;32542;52.832;13.816;2023-01-04T00:25:46;4.15;;;3.08;;
17253;SDS011;32542;52.832;13.816;2023-01-04T00:28:52;4.25;;;2.83;;
17253;SDS011;32542;52.832;13.816;2023-01-04T00:31:55;3.88;;;2.90;;
17253;SDS011;32542;52.832;13.816;2023-01-04T00:35:00;3.60;;;2.85;;
17253;SDS011;32542;52.832;13.816;2023-01-04T00:38:03;3.65;;;2.60;;
17253;SDS011;32542;52.832;13.816;2023-01-04T00:41:06;4.18;;;3.13;;
17253;SDS011;32542;52.832;13.816;2023-01-04T00:44:28;4.47;;;3.15;;
17253;SDS011;32542;52.832;13.816;2023-01-04T00:47:32;4.07;;;2.88;;
17253;SDS011;32542;52.832;13.816;2023-01-04T00:50:36;3.88;;;2.97;;
17253;SDS011;32542;52.832;13.816;2023-01-04T00:53:39;4.20;;;2.80;;
17253;SDS011;32542;52.832;13.816;2023-01-04T00:56:42;3.13;;;2.78;;
17253;SDS011;32542;52.832;13.816;2023-01-04T00:59:45;4.32;;;3.08;;
17253;SDS011;32542;52.832;13.816;2023-01-04T01:02:48;3.40;;;2.72;;
17253;SDS011;32542;52.832;13.816;2023-01-04T01:05:52;4.25;;;2.95;;
17253;SDS011;32542;52.832;13.816;2023-01-04T01:08:55;3.33;;;2.72;;
17253;SDS011;32542;52.832;13.816;2023-01-04T01:11:58;3.53;;;2.78;;
17253;SDS011;32542;52.832;13.816;2023-01-04T01:15:01;3.80;;;2.70;;
17253;SDS011;32542;52.832;13.816;2023-01-04T01:18:04;4.38;;;2.70;;
17253;SDS011;32542;52.832;13.816;2023-01-04T01:21:10;3.70;;;2.67;;
17253;SDS011;32542;52.832;13.816;2023-01-04T01:24:16;3.45;;;2.72;;
17253;SDS011;32542;52.832;13.816;2023-01-04T01:27:20;4.47;;;2.92;;
17253;SDS011;32542;52.832;13.816;2023-01-04T01:30:23;2.40;;;2.20;;
17253;SDS011;32542;52.832;13.816;2023-01-04T01:33:26;4.47;;;3.20;;
17253;SDS011;32542;52.832;13.816;2023-01-04T01:36:30;3.45;;;2.63;;
17253;SDS011;32542;52.832;13.816;2023-01-04T01:39:34;2.83;;;2.40;;
17253;SDS011;32542;52.832;13.816;2023-01-04T01:42:37;3.67;;;2.55;;
17253;SDS011;32542;52.832;13.816;2023-01-04T01:45:39;3.85;;;2.78;;
17253;SDS011;32542;52.832;13.816;2023-01-04T01:48:42;4.60;;;2.90;;
17253;SDS011;32542;52.832;13.816;2023-01-04T01:51:47;4.05;;;2.85;;
17253;SDS011;32542;52.832;13.816;2023-01-04T01:54:51;3.63;;;2.75;;
17253;SDS011;32542;52.832;13.816;2023-01-04T01:57:58;3.80;;;3.08;;
17253;SDS011;32542;52.832;13.816;2023-01-04T02:01:03;4.63;;;2.72;;
17253;SDS011;32542;52.832;13.816;2023-01-04T02:04:06;3.95;;;2.80;;
17253;SDS011;32542;52.832;13.816;2023-01-04T02:07:11;3.83;;;2.78;;
17253;SDS011;32542;52.832;13.816;2023-01-04T02:10:17;3.28;;;2.63;;
17253;SDS011;32542;52.832;13.816;2023-01-04T02:13:22;4.05;;;3.15;;
17253;SDS011;32542;52.832;13.816;2023-01-04T02:16:51;3.58;;;2.80;;
17253;SDS011;32542;52.832;13.816;2023-01-04T02:20:06;4.15;;;2.80;;
17253;SDS011;32542;52.832;13.816;2023-01-04T02:23:31;3.15;;;2.50;;
17253;SDS011;32542;52.832;13.816;2023-01-04T02:34:17;3.05;;;2.65;;
17253;SDS011;32542;52.832;13.816;2023-01-04T02:37:29;3.38;;;2.83;;
17253;SDS011;32542;52.832;13.816;2023-01-04T02:40:42;4.32;;;2.45;;
17253;SDS011;32542;52.832;13.816;2023-01-04T02:43:52;3.75;;;2.40;;
17253;SDS011;32542;52.832;13.816;2023-01-04T02:47:20;3.63;;;2.78;;
17253;SDS011;32542;52.832;13.816;2023-01-04T02:50:49;2.97;;;2.60;;
17253;SDS011;32542;52.832;13.816;2023-01-04T02:53:53;3.83;;;2.65;;
17253;SDS011;32542;52.832;13.816;2023-01-04T02:57:07;3.10;;;2.58;;
17253;SDS011;32542;52.832;13.816;2023-01-04T03:00:26;3.92;;;2.70;;
17253;SDS011;32542;52.832;13.816;2023-01-04T03:04:01;3.40;;;2.72;;
17253;SDS011;32542;52.832;13.816;2023-01-04T03:07:33;3.45;;;2.70;;
17253;SDS011;32542;52.832;13.816;2023-01-04T03:10:44;3.17;;;2.63;;
17253;SDS011;32542;52.832;13.816;2023-01-04T03:13:52;3.17;;;2.60;;
17253;SDS011;32542;52.832;13.816;2023-01-04T03:16:56;2.83;;;2.38;;
17253;SDS011;32542;52.832;13.816;2023-01-04T03:20:03;2.75;;;2.40;;
17253;SDS011;32542;52.832;13.816;2023-01-04T03:23:11;2.53;;;2.33;;
17253;SDS011;32542;52.832;13.816;2023-01-04T03:26:35;3.20;;;2.70;;
17253;SDS011;32542;52.832;13.816;2023-01-04T03:29:59;2.85;;;2.50;;
17253;SDS011;32542;52.832;13.816;2023-01-04T03:33:23;2.97;;;2.40;;
17253;SDS011;32542;52.832;13.816;2023-01-04T03:36:46;3.90;;;2.30;;
17253;SDS011;32542;52.832;13.816;2023-01-04T03:40:02;2.90;;;2.45;;
17253;SDS011;32542;52.832;13.816;2023-01-04T03:43:38;2.90;;;2.50;;
17253;SDS011;32542;52.832;13.816;2023-01-04T03:47:03;2.63;;;2.40;;
17253;SDS011;32542;52.832;13.816;2023-01-04T03:50:28;2.63;;;2.42;;
17253;SDS011;32542;52.832;13.816;2023-01-04T03:53:38;2.85;;;2.55;;
17253;SDS011;32542;52.832;13.816;2023-01-04T03:56:47;3.70;;;2.40;;
17253;SDS011;32542;52.832;13.816;2023-01-04T03:59:52;2.65;;;2.28;;
17253;SDS011;32542;52.832;13.816;2023-01-04T04:02:59;2.83;;;2.20;;
17253;SDS011;32542;52.832;13.816;2023-01-04T04:06:07;2.88;;;2.50;;
17253;SDS011;32542;52.832;13.816;2023-01-04T04:09:29;3.53;;;2.38;;
17253;SDS011;32542;52.832;13.816;2023-01-04T04:12:32;3.10;;;2.30;;
17253;SDS011;32542;52.832;13.816;2023-01-04T04:15:35;2.65;;;2.20;;
17253;SDS011;32542;52.832;13.816;2023-01-04T04:18:38;2.58;;;2.25;;
17253;SDS011;32542;52.832;13.816;2023-01-04T04:21:41;2.83;;;2.53;;
17253;SDS011;32542;52.832;13.816;2023-01-04T04:24:45;3.13;;;2.25;;
17253;SDS011;32542;52.832;13.816;2023-01-04T04:27:48;3.00;;;2.60;;
17253;SDS011;32542;52.832;13.816;2023-01-04T04:30:51;2.97;;;2.25;;
17253;SDS011;32542;52.832;13.816;2023-01-04T04:33:54;2.97;;;2.28;;
17253;SDS011;32542;52.832;13.816;2023-01-04T04:36:57;3.20;;;2.65;;
17253;SDS011;32542;52.832;13.816;2023-01-04T04:40:01;2.40;;;2.20;;
17253;SDS011;32542;52.832;13.816;2023-01-04T04:43:06;2.97;;;2.55;;
17253;SDS011;32542;52.832;13.816;2023-01-04T04:46:08;2.92;;;2.40;;
17253;SDS011;32542;52.832;13.816;2023-01-04T04:49:12;3.80;;;2.28;;
17253;SDS011;32542;52.832;13.816;2023-01-04T04:52:16;2.45;;;2.25;;
17253;SDS011;32542;52.832;13.816;2023-01-04T04:55:20;2.22;;;2.03;;
17253;SDS011;32542;52.832;13.816;2023-01-04T04:58:23;2.95;;;2.63;;
17253;SDS011;32542;52.832;13.816;2023-01-04T05:01:26;2.72;;;2.25;;
17253;SDS011;32542;52.832;13.816;2023-01-04T05:04:29;2.80;;;2.42;;
17253;SDS011;32542;52.832;13.816;2023-01-04T05:07:32;3.03;;;2.35;;
17253;SDS011;32542;52.832;13.816;2023-01-04T05:10:36;3.60;;;2.30;;
17253;SDS011;32542;52.832;13.816;2023-01-04T05:13:39;3.92;;;2.13;;
17253;SDS011;32542;52.832;13.816;2023-01-04T05:16:41;3.20;;;2.50;;
17253;SDS011;32542;52.832;13.816;2023-01-04T05:19:45;2.88;;;2.58;;
17253;SDS011;32542;52.832;13.816;2023-01-04T05:22:48;2.45;;;2.10;;
17253;SDS011;32542;52.832;13.816;2023-01-04T05:25:53;2.58;;;2.38;;
17253;SDS011;32542;52.832;13.816;2023-01-04T05:28:59;2.65;;;2.35;;
17253;SDS011;32542;52.832;13.816;2023-01-04T05:32:02;2.90;;;2.00;;
17253;SDS011;32542;52.832;13.816;2023-01-04T05:35:04;3.47;;;2.35;;
17253;SDS011;32542;52.832;13.816;2023-01-04T05:38:08;2.65;;;2.33;;
17253;SDS011;32542;52.832;13.816;2023-01-04T05:41:12;2.75;;;2.30;;
17253;SDS011;32542;52.832;13.816;2023-01-04T05:44:29;2.40;;;2.20;;
17253;SDS011;32542;52.832;13.816;2023-01-04T05:47:31;2.50;;;2.30;;
17253;SDS011;32542;52.832;13.816;2023-01-04T05:50:35;3.72;;;2.50;;
17253;SDS011;32542;52.832;13.816;2023-01-04T05:53:38;2.25;;;2.00;;
17253;SDS011;32542;52.832;13.816;2023-01-04T05:56:42;3.22;;;2.42;;
17253;SDS011;32542;52.832;13.816;2023-01-04T05:59:45;3.20;;;2.45;;
17253;SDS011;32542;52.832;13.816;2023-01-04T06:02:48;2.38;;;2.17;;
17253;SDS011;32542;52.832;13.816;2023-01-04T06:05:52;3.75;;;2.20;;
17253;SDS011;32542;52.832;13.816;2023-01-04T06:08:55;3.58;;;2.40;;
17253;SDS011;32542;52.832;13.816;2023-01-04T06:11:59;2.30;;;1.90;;
17253;SDS011;32542;52.832;13.816;2023-01-04T06:15:03;2.63;;;2.30;;
17253;SDS011;32542;52.832;13.816;2023-01-04T06:18:07;2.13;;;1.90;;
17253;SDS011;32542;52.832;13.816;2023-01-04T06:21:14;2.20;;;2.00;;
17253;SDS011;32542;52.832;13.816;2023-01-04T06:24:17;3.30;;;2.30;;
17253;SDS011;32542;52.832;13.816;2023-01-04T06:27:21;2.30;;;2.10;;
17253;SDS011;32542;52.832;13.816;2023-01-04T06:30:24;2.92;;;2.15;;
17253;SDS011;32542;52.832;13.816;2023-01-04T06:33:29;2.50;;;1.92;;
17253;SDS011;32542;52.832;13.816;2023-01-04T06:36:32;2.40;;;2.20;;
17253;SDS011;32542;52.832;13.816;2023-01-04T06:39:36;2.92;;;2.20;;
17253;SDS011;32542;52.832;13.816;2023-01-04T06:42:40;3.17;;;2.40;;
17253;SDS011;32542;52.832;13.816;2023-01-04T06:45:45;2.90;;;2.38;;
17253;SDS011;32542;52.832;13.816;2023-01-04T06:48:48;2.70;;;2.22;;
17253;SDS011;32542;52.832;13.816;2023-01-04T06:51:52;2.80;;;2.50;;
17253;SDS011;32542;52.832;13.816;2023-01-04T06:54:55;2.85;;;2.20;;
17253;SDS011;32542;52.832;13.816;2023-01-04T06:58:00;2.65;;;2.10;;
17253;SDS011;32542;52.832;13.816;2023-01-04T07:01:03;3.20;;;2.38;;
17253;SDS011;32542;52.832;13.816;2023-01-04T07:04:06;2.92;;;2.50;;
17253;SDS011;32542;52.832;13.816;2023-01-04T07:07:10;3.65;;;2.80;;
17253;SDS011;32542;52.832;13.816;2023-01-04T07:10:12;2.75;;;2.20;;
17253;SDS011;32542;52.832;13.816;2023-01-04T07:13:17;2.45;;;2.15;;
17253;SDS011;32542;52.832;13.816;2023-01-04T07:16:19;2.85;;;2.40;;
17253;SDS011;32542;52.832;13.816;2023-01-04T07:19:23;2.72;;;2.50;;
17253;SDS011;32542;52.832;13.816;2023-01-04T07:22:26;2.45;;;2.22;;
17253;SDS011;32542;52.832;13.816;2023-01-04T07:25:29;3.15;;;2.45;;
17253;SDS011;32542;52.832;13.816;2023-01-04T07:28:33;3.10;;;2.60;;
17253;SDS011;32542;52.832;13.816;2023-01-04T07:31:53;3.28;;;2.50;;
17253;SDS011;32542;52.832;13.816;2023-01-04T07:34:56;3.05;;;2.47;;
17253;SDS011;32542;52.832;13.816;2023-01-04T07:37:59;2.30;;;2.10;;
17253;SDS011;32542;52.832;13.816;2023-01-04T07:41:02;3.90;;;2.35;;
17253;SDS011;32542;52.832;13.816;2023-01-04T07:44:07;3.20;;;2.42;;
17253;SDS011;32542;52.832;13.816;2023-01-04T07:47:10;3.53;;;2.30;;
17253;SDS011;32542;52.832;13.816;2023-01-04T07:50:13;3.38;;;2.20;;
17253;SDS011;32542;52.832;13.816;2023-01-04T07:53:16;3.35;;;2.40;;
17253;SDS011;32542;52.832;13.816;2023-01-04T07:56:20;2.80;;;2.33;;
17253;SDS011;32542;52.832;13.816;2023-01-04T07:59:24;3.08;;;2.78;;
17253;SDS011;32542;52.832;13.816;2023-01-04T08:02:27;3.05;;;2.30;;
17253;SDS011;32542;52.832;13.816;2023-01-04T08:05:31;3.15;;;2.40;;
17253;SDS011;32542;52.832;13.816;2023-01-04T08:08:34;3.20;;;2.50;;
17253;SDS011;32542;52.832;13.816;2023-01-04T08:11:37;3.30;;;2.40;;
17253;SDS011;32542;52.832;13.816;2023-01-04T08:14:41;2.80;;;2.53;;
17253;SDS011;32542;52.832;13.816;2023-01-04T08:17:44;2.92;;;2.38;;
17253;SDS011;32542;52.832;13.816;2023-01-04T08:20:47;3.08;;;2.75;;
17253;SDS011;32542;52.832;13.816;2023-01-04T08:23:58;4.20;;;3.22;;
17253;SDS011;32542;52.832;13.816;2023-01-04T08:27:02;3.58;;;2.83;;
17253;SDS011;32542;52.832;13.816;2023-01-04T08:30:08;3.80;;;2.80;;
17253;SDS011;32542;52.832;13.816;2023-01-04T08:33:12;3.40;;;2.90;;
17253;SDS011;32542;52.832;13.816;2023-01-04T08:36:16;4.18;;;3.00;;
17253;SDS011;32542;52.832;13.816;2023-01-04T08:39:27;3.83;;;2.90;;
17253;SDS011;32542;52.832;13.816;2023-01-04T08:42:33;3.88;;;3.30;;
17253;SDS011;32542;52.832;13.816;2023-01-04T08:45:37;3.88;;;2.88;;
17253;SDS011;32542;52.832;13.816;2023-01-04T08:48:40;3.45;;;2.70;;
17253;SDS011;32542;52.832;13.816;2023-01-04T08:51:44;3.78;;;2.75;;
17253;SDS011;32542;52.832;13.816;2023-01-04T08:54:47;3.15;;;2.47;;
17253;SDS011;32542;52.832;13.816;2023-01-04T08:57:50;3.58;;;2.70;;
17253;SDS011;32542;52.832;13.816;2023-01-04T09:00:57;2.90;;;2.50;;
17253;SDS011;32542;52.832;13.816;2023-01-04T09:04:01;4.05;;;2.95;;
17253;SDS011;32542;52.832;13.816;2023-01-04T09:07:04;3.63;;;2.97;;
17253;SDS011;32542;52.832;13.816;2023-01-04T09:10:08;3.20;;;2.78;;
17253;SDS011;32542;52.832;13.816;2023-01-04T09:13:11;3.58;;;2.90;;
17253;SDS011;32542;52.832;13.816;2023-01-04T09:16:16;3.50;;;2.70;;
17253;SDS011;32542;52.832;13.816;2023-01-04T09:19:21;2.53;;;2.33;;
17253;SDS011;32542;52.832;13.816;2023-01-04T09:22:24;3.60;;;2.65;;
17253;SDS011;32542;52.832;13.816;2023-01-04T09:25:26;3.28;;;2.60;;
17253;SDS011;32542;52.832;13.816;2023-01-04T09:28:29;3.00;;;2.70;;
17253;SDS011;32542;52.832;13.816;2023-01-04T09:31:34;3.00;;;2.70;;
17253;SDS011;32542;52.832;13.816;2023-01-04T09:34:37;3.65;;;2.58;;
17253;SDS011;32542;52.832;13.816;2023-01-04T09:37:40;3.25;;;2.30;;
17253;SDS011;32542;52.832;13.816;2023-01-04T09:40:46;3.10;;;2.50;;
17253;SDS011;32542;52.832;13.816;2023-01-04T09:43:55;3.38;;;2.50;;
17253;SDS011;32542;52.832;13.816;2023-01-04T09:47:04;3.03;;;2.45;;
17253;SDS011;32542;52.832;13.816;2023-01-04T09:50:12;2.75;;;2.47;;
17253;SDS011;32542;52.832;13.816;2023-01-04T09:53:20;2.70;;;2.50;;
17253;SDS011;32542;52.832;13.816;2023-01-04T09:56:29;3.08;;;2.50;;
17253;SDS011;32542;52.832;13.816;2023-01-04T09:59:34;3.63;;;2.70;;
17253;SDS011;32542;52.832;13.816;2023-01-04T10:02:39;2.90;;;2.63;;
17253;SDS011;32542;52.832;13.816;2023-01-04T10:05:44;3.40;;;2.42;;
17253;SDS011;32542;52.832;13.816;2023-01-04T10:08:47;2.67;;;2.28;;
17253;SDS011;32542;52.832;13.816;2023-01-04T10:11:58;3.13;;;2.47;;
17253;SDS011;32542;52.832;13.816;2023-01-04T10:15:14;3.00;;;2.70;;
17253;SDS011;32542;52.832;13.816;2023-01-04T10:18:29;2.40;;;2.20;;
17253;SDS011;32542;52.832;13.816;2023-01-04T10:21:58;3.13;;;2.45;;
17253;SDS011;32542;52.832;13.816;2023-01-04T10:25:14;2.78;;;2.30;;
17253;SDS011;32542;52.832;13.816;2023-01-04T10:28:29;3.67;;;2.50;;
17253;SDS011;32542;52.832;13.816;2023-01-04T10:31:42;2.72;;;2.50;;
17253;SDS011;32542;52.832;13.816;2023-01-04T10:34:51;2.53;;;2.33;;
17253;SDS011;32542;52.832;13.816;2023-01-04T10:37:56;2.67;;;2.20;;
17253;SDS011;32542;52.832;13.816;2023-01-04T10:41:01;3.10;;;2.70;;
17253;SDS011;32542;52.832;13.816;2023-01-04T10:44:12;3.33;;;2.47;;
17253;SDS011;32542;52.832;13.816;2023-01-04T10:47:20;2.85;;;2.30;;
17253;SDS011;32542;52.832;13.816;2023-01-04T10:50:32;3.40;;;2.78;;
17253;SDS011;32542;52.832;13.816;2023-01-04T10:53:41;2.88;;;2.33;;
17253;SDS011;32542;52.832;13.816;2023-01-04T10:56:50;2.65;;;2.30;;
17253;SDS011;32542;52.832;13.816;2023-01-04T10:59:56;2.60;;;2.20;;
17253;SDS011;32542;52.832;13.816;2023-01-04T11:03:05;2.80;;;2.20;;
17253;SDS011;32542;52.832;13.816;2023-01-04T11:06:16;2.60;;;2.40;;
17253;SDS011;32542;52.832;13.816;2023-01-04T11:09:24;2.30;;;2.10;;
17253;SDS011;32542;52.832;13.816;2023-01-04T11:12:31;2.45;;;2.25;;
17253;SDS011;32542;52.832;13.816;2023-01-04T11:15:34;2.58;;;2.08;;
17253;SDS011;32542;52.832;13.816;2023-01-04T11:18:37;3.33;;;2.20;;
17253;SDS011;32542;52.832;13.816;2023-01-04T11:21:45;2.55;;;2.08;;
17253;SDS011;32542;52.832;13.816;2023-01-04T11:24:53;2.05;;;1.85;;
17253;SDS011;32542;52.832;13.816;2023-01-04T11:28:23;2.95;;;2.15;;
17253;SDS011;32542;52.832;13.816;2023-01-04T11:31:31;2.70;;;2.40;;
17253;SDS011;32542;52.832;13.816;2023-01-04T11:34:46;3.10;;;2.17;;
17253;SDS011;32542;52.832;13.816;2023-01-04T11:37:57;2.75;;;2.20;;
17253;SDS011;32542;52.832;13.816;2023-01-04T11:41:14;2.70;;;2.22;;
17253;SDS011;32542;52.832;13.816;2023-01-04T11:44:18;3.67;;;2.40;;
17253;SDS011;32542;52.832;13.816;2023-01-04T11:47:21;2.97;;;2.22;;
17253;SDS011;32542;52.832;13.816;2023-01-04T11:50:37;3.00;;;2.60;;
17253;SDS011;32542;52.832;13.816;2023-01-04T11:53:43;2.88;;;2.40;;
17253;SDS011;32542;52.832;13.816;2023-01-04T11:56:57;2.63;;;2.10;;
17253;SDS011;32542;52.832;13.816;2023-01-04T12:00:13;2.20;;;2.00;;
17253;SDS011;32542;52.832;13.816;2023-01-04T12:03:19;2.60;;;2.03;;
17253;SDS011;32542;52.832;13.816;2023-01-04T12:06:32;2.65;;;2.10;;
17253;SDS011;32542;52.832;13.816;2023-01-04T12:09:40;2.50;;;2.20;;
17253;SDS011;32542;52.832;13.816;2023-01-04T12:12:43;2.42;;;1.90;;
17253;SDS011;32542;52.832;13.816;2023-01-04T12:15:47;2.42;;;1.98;;
17253;SDS011;32542;52.832;13.816;2023-01-04T12:19:01;8.48;;;2.78;;
17253;SDS011;32542;52.832;13.816;2023-01-04T12:22:13;4.28;;;2.33;;
17253;SDS011;32542;52.832;13.816;2023-01-04T12:25:31;2.25;;;2.05;;
17253;SDS011;32542;52.832;13.816;2023-01-04T12:28:40;2.65;;;1.85;;
17253;SDS011;32542;52.832;13.816;2023-01-04T12:31:44;2.20;;;1.92;;
17253;SDS011;32542;52.832;13.816;2023-01-04T12:34:47;2.50;;;2.20;;
17253;SDS011;32542;52.832;13.816;2023-01-04T12:37:50;2.47;;;2.00;;
17253;SDS011;32542;52.832;13.816;2023-01-04T12:40:54;2.50;;;2.10;;
17253;SDS011;32542;52.832;13.816;2023-01-04T12:43:57;2.33;;;2.00;;
17253;SDS011;32542;52.832;13.816;2023-01-04T12:47:01;2.53;;;2.00;;
17253;SDS011;32542;52.832;13.816;2023-01-04T12:50:22;2.65;;;2.28;;
17253;SDS011;32542;52.832;13.816;2023-01-04T13:04:26;2.47;;;2.05;;
17253;SDS011;32542;52.832;13.816;2023-01-04T13:07:40;2.20;;;1.80;;
17253;SDS011;32542;52.832;13.816;2023-01-04T13:10:46;2.35;;;2.15;;
17253;SDS011;32542;52.832;13.816;2023-01-04T13:13:54;2.85;;;2.10;;
17253;SDS011;32542;52.832;13.816;2023-01-04T13:17:09;2.72;;;1.80;;
17253;SDS011;32542;52.832;13.816;2023-01-04T13:20:18;2.13;;;1.90;;
17253;SDS011;32542;52.832;13.816;2023-01-04T13:23:23;2.30;;;1.92;;
17253;SDS011;32542;52.832;13.816;2023-01-04T13:26:32;2.90;;;2.13;;
17253;SDS011;32542;52.832;13.816;2023-01-04T13:29:39;2.28;;;1.90;;
17253;SDS011;32542;52.832;13.816;2023-01-04T13:32:43;2.05;;;1.75;;
17253;SDS011;32542;52.832;13.816;2023-01-04T13:36:09;1.92;;;1.67;;
17253;SDS011;32542;52.832;13.816;2023-01-04T13:39:13;2.28;;;1.90;;
17253;SDS011;32542;52.832;13.816;2023-01-04T13:42:19;3.25;;;1.90;;
17253;SDS011;32542;52.832;13.816;2023-01-04T13:45:40;2.08;;;1.80;;
17253;SDS011;32542;52.832;13.816;2023-01-04T13:48:52;2.72;;;2.00;;
17253;SDS011;32542;52.832;13.816;2023-01-04T13:52:12;3.25;;;1.75;;
17253;SDS011;32542;52.832;13.816;2023-01-04T13:55:36;1.55;;;1.40;;
17253;SDS011;32542;52.832;13.816;2023-01-04T13:58:42;2.00;;;1.70;;
17253;SDS011;32542;52.832;13.816;2023-01-04T14:01:46;2.92;;;2.08;;
17253;SDS011;32542;52.832;13.816;2023-01-04T14:04:50;1.77;;;1.58;;
17253;SDS011;32542;52.832;13.816;2023-01-04T14:07:53;2.17;;;1.98;;
17253;SDS011;32542;52.832;13.816;2023-01-04T14:10:56;2.60;;;2.00;;
17253;SDS011;32542;52.832;13.816;2023-01-04T14:13:59;2.03;;;1.80;;
17253;SDS011;32542;52.832;13.816;2023-01-04T14:17:14;2.08;;;1.80;;
17253;SDS011;32542;52.832;13.816;2023-01-04T14:20:32;2.03;;;1.80;;
17253;SDS011;32542;52.832;13.816;2023-01-04T14:23:37;3.00;;;1.75;;
17253;SDS011;32542;52.832;13.816;2023-01-04T14:26:40;2.65;;;1.60;;
17253;SDS011;32542;52.832;13.816;2023-01-04T14:29:43;2.60;;;2.03;;
17253;SDS011;32542;52.832;13.816;2023-01-04T14:32:52;2.45;;;1.90;;
17253;SDS011;32542;52.832;13.816;2023-01-04T14:36:01;2.38;;;1.80;;
17253;SDS011;32542;52.832;13.816;2023-01-04T14:39:10;2.03;;;1.80;;
17253;SDS011;32542;52.832;13.816;2023-01-04T14:42:22;2.10;;;1.70;;
17253;SDS011;32542;52.832;13.816;2023-01-04T14:45:26;2.20;;;1.73;;
17253;SDS011;32542;52.832;13.816;2023-01-04T14:48:30;2.75;;;2.00;;
17253;SDS011;32542;52.832;13.816;2023-01-04T14:51:34;2.30;;;1.92;;
17253;SDS011;32542;52.832;13.816;2023-01-04T14:54:39;1.70;;;1.60;;
17253;SDS011;32542;52.832;13.816;2023-01-04T14:57:42;2.08;;;1.63;;
17253;SDS011;32542;52.832;13.816;2023-01-04T15:00:45;1.92;;;1.70;;
17253;SDS011;32542;52.832;13.816;2023-01-04T15:03:49;1.98;;;1.77;;
17253;SDS011;32542;52.832;13.816;2023-01-04T15:06:53;2.13;;;1.83;;
17253;SDS011;32542;52.832;13.816;2023-01-04T15:09:58;1.88;;;1.60;;
17253;SDS011;32542;52.832;13.816;2023-01-04T15:13:01;1.85;;;1.70;;
17253;SDS011;32542;52.832;13.816;2023-01-04T15:16:04;1.88;;;1.70;;
17253;SDS011;32542;52.832;13.816;2023-01-04T15:19:10;1.70;;;1.60;;
17253;SDS011;32542;52.832;13.816;2023-01-04T15:22:12;2.10;;;1.65;;
17253;SDS011;32542;52.832;13.816;2023-01-04T15:25:15;2.50;;;2.00;;
17253;SDS011;32542;52.832;13.816;2023-01-04T15:28:18;2.28;;;1.65;;
17253;SDS011;32542;52.832;13.816;2023-01-04T15:31:22;2.00;;;1.73;;
17253;SDS011;32542;52.832;13.816;2023-01-04T15:34:36;2.65;;;1.73;;
17253;SDS011;32542;52.832;13.816;2023-01-04T15:37:47;1.75;;;1.40;;
17253;SDS011;32542;52.832;13.816;2023-01-04T15:40:50;2.25;;;1.80;;
17253;SDS011;32542;52.832;13.816;2023-01-04T15:43:52;1.58;;;1.48;;
17253;SDS011;32542;52.832;13.816;2023-01-04T15:46:55;2.53;;;1.80;;
17253;SDS011;32542;52.832;13.816;2023-01-04T15:50:01;1.92;;;1.60;;
17253;SDS011;32542;52.832;13.816;2023-01-04T15:53:04;2.28;;;1.70;;
17253;SDS011;32542;52.832;13.816;2023-01-04T15:56:09;2.22;;;1.45;;
17253;SDS011;32542;52.832;13.816;2023-01-04T15:59:13;2.50;;;1.60;;
17253;SDS011;32542;52.832;13.816;2023-01-04T16:02:16;1.95;;;1.75;;
17253;SDS011;32542;52.832;13.816;2023-01-04T16:05:21;2.80;;;1.60;;
17253;SDS011;32542;52.832;13.816;2023-01-04T16:08:24;2.17;;;1.60;;
17253;SDS011;32542;52.832;13.816;2023-01-04T16:11:26;1.50;;;1.40;;
17253;SDS011;32542;52.832;13.816;2023-01-04T16:14:29;2.42;;;1.70;;
17253;SDS011;32542;52.832;13.816;2023-01-04T16:17:32;2.53;;;1.70;;
17253;SDS011;32542;52.832;13.816;2023-01-04T16:20:38;2.35;;;1.70;;
17253;SDS011;32542;52.832;13.816;2023-01-04T16:23:42;2.17;;;1.65;;
17253;SDS011;32542;52.832;13.816;2023-01-04T16:26:45;2.38;;;1.50;;
17253;SDS011;32542;52.832;13.816;2023-01-04T16:29:47;2.20;;;1.60;;
17253;SDS011;32542;52.832;13.816;2023-01-04T16:32:51;2.55;;;1.75;;
17253;SDS011;32542;52.832;13.816;2023-01-04T16:36:00;2.13;;;1.70;;
17253;SDS011;32542;52.832;13.816;2023-01-04T16:39:03;2.83;;;1.80;;
17253;SDS011;32542;52.832;13.816;2023-01-04T16:42:06;2.13;;;1.67;;
17253;SDS011;32542;52.832;13.816;2023-01-04T16:45:11;2.47;;;1.55;;
17253;SDS011;32542;52.832;13.816;2023-01-04T16:48:15;1.95;;;1.70;;
17253;SDS011;32542;52.832;13.816;2023-01-04T16:51:20;2.50;;;1.73;;
17253;SDS011;32542;52.832;13.816;2023-01-04T16:54:24;1.83;;;1.55;;
17253;SDS011;32542;52.832;13.816;2023-01-04T16:57:27;1.85;;;1.42;;
17253;SDS011;32542;52.832;13.816;2023-01-04T17:00:30;1.83;;;1.58;;
17253;SDS011;32542;52.832;13.816;2023-01-04T17:03:33;2.03;;;1.50;;
17253;SDS011;32542;52.832;13.816;2023-01-04T17:06:38;2.00;;;1.40;;
17253;SDS011;32542;52.832;13.816;2023-01-04T17:09:43;1.90;;;1.70;;
17253;SDS011;32542;52.832;13.816;2023-01-04T17:12:45;1.58;;;1.48;;
17253;SDS011;32542;52.832;13.816;2023-01-04T17:15:49;1.85;;;1.42;;
17253;SDS011;32542;52.832;13.816;2023-01-04T17:18:52;2.05;;;1.50;;
17253;SDS011;32542;52.832;13.816;2023-01-04T17:21:57;2.47;;;1.65;;
17253;SDS011;32542;52.832;13.816;2023-01-04T17:25:00;1.77;;;1.55;;
17253;SDS011;32542;52.832;13.816;2023-01-04T17:28:03;1.77;;;1.45;;
17253;SDS011;32542;52.832;13.816;2023-01-04T17:31:07;2.63;;;1.80;;
17253;SDS011;32542;52.832;13.816;2023-01-04T17:34:14;2.05;;;1.67;;
17253;SDS011;32542;52.832;13.816;2023-01-04T17:37:25;2.15;;;1.50;;
17253;SDS011;32542;52.832;13.816;2023-01-04T17:40:31;1.63;;;1.40;;
17253;SDS011;32542;52.832;13.816;2023-01-04T17:43:34;3.08;;;1.77;;
17253;SDS011;32542;52.832;13.816;2023-01-04T17:46:37;1.60;;;1.50;;
17253;SDS011;32542;52.832;13.816;2023-01-04T17:49:40;1.30;;;1.20;;
17253;SDS011;32542;52.832;13.816;2023-01-04T17:52:44;2.00;;;1.52;;
17253;SDS011;32542;52.832;13.816;2023-01-04T17:55:48;1.45;;;1.27;;
17253;SDS011;32542;52.832;13.816;2023-01-04T17:58:50;1.73;;;1.48;;
17253;SDS011;32542;52.832;13.816;2023-01-04T18:01:53;2.30;;;1.67;;
17253;SDS011;32542;52.832;13.816;2023-01-04T18:04:56;2.50;;;1.58;;
17253;SDS011;32542;52.832;13.816;2023-01-04T18:08:01;1.60;;;1.50;;
17253;SDS011;32542;52.832;13.816;2023-01-04T18:11:04;1.45;;;1.35;;
17253;SDS011;32542;52.832;13.816;2023-01-04T18:14:09;1.98;;;1.77;;
17253;SDS011;32542;52.832;13.816;2023-01-04T18:17:14;2.35;;;1.60;;
17253;SDS011;32542;52.832;13.816;2023-01-04T18:20:17;1.75;;;1.60;;
17253;SDS011;32542;52.832;13.816;2023-01-04T18:23:26;1.63;;;1.50;;
17253;SDS011;32542;52.832;13.816;2023-01-04T18:26:30;2.50;;;1.33;;
17253;SDS011;32542;52.832;13.816;2023-01-04T18:29:54;1.67;;;1.33;;
17253;SDS011;32542;52.832;13.816;2023-01-04T18:32:57;2.20;;;1.52;;
17253;SDS011;32542;52.832;13.816;2023-01-04T18:36:00;2.38;;;1.40;;
17253;SDS011;32542;52.832;13.816;2023-01-04T18:39:05;1.80;;;1.40;;
17253;SDS011;32542;52.832;13.816;2023-01-04T18:42:08;2.08;;;1.70;;
17253;SDS011;32542;52.832;13.816;2023-01-04T18:45:11;2.95;;;1.60;;